sensor_id;sensor_type;location;lat;lon;timestamp;temperature;humidity
32877;DHT22;19226;51.600;8.034;2023-07-20T00:02:20;17.80;99.90
32877;DHT22;19226;51.600;8.034;2023-07-20T00:05:04;17.80;99.90
32877;DHT22;19226;51.600;8.034;2023-07-20T00:07:49;17.80;99.90
32877;DHT22;19226;51.600;8.034;2023-07-20T00:10:36;17.80;99.90
32877;DHT22;19226;51.600;8.034;2023-07-20T00:13:20;17.80;99.90
32877;DHT22;19226;51.600;8.034;2023-07-20T00:16:05;17.80;99.90
32877;DHT22;19226;51.600;8.034;2023-07-20T00:18:50;17.80;99.90
32877;DHT22;19226;51.600;8.034;2023-07-20T00:21:34;17.80;99.90
32877;DHT22;19226;51.600;8.034;2023-07-20T00:24:19;17.80;99.90
32877;DHT22;19226;51.600;8.034;2023-07-20T00:27:04;17.80;99.90
32877;DHT22;19226;51.600;8.034;2023-07-20T00:29:48;17.80;99.90
32877;DHT22;19226;51.600;8.034;2023-07-20T00:32:33;17.80;99.90
32877;DHT22;19226;51.600;8.034;2023-07-20T00:35:18;17.80;99.90
32877;DHT22;19226;51.600;8.034;2023-07-20T00:38:02;17.90;99.90
32877;DHT22;19226;51.600;8.034;2023-07-20T00:40:46;17.80;99.90
32877;DHT22;19226;51.600;8.034;2023-07-20T00:43:32;17.80;99.90
32877;DHT22;19226;51.600;8.034;2023-07-20T00:46:17;17.80;99.90
32877;DHT22;19226;51.600;8.034;2023-07-20T00:49:01;17.80;99.90
32877;DHT22;19226;51.600;8.034;2023-07-20T00:51:47;17.80;99.90
32877;DHT22;19226;51.600;8.034;2023-07-20T00:54:34;17.80;99.90
32877;DHT22;19226;51.600;8.034;2023-07-20T00:57:19;17.70;99.90
32877;DHT22;19226;51.600;8.034;2023-07-20T01:00:04;17.70;99.90
32877;DHT22;19226;51.600;8.034;2023-07-20T01:02:51;17.70;99.90
32877;DHT22;19226;51.600;8.034;2023-07-20T01:05:47;17.70;99.90
32877;DHT22;19226;51.600;8.034;2023-07-20T01:08:40;17.70;99.90
32877;DHT22;19226;51.600;8.034;2023-07-20T01:11:36;17.70;99.90
32877;DHT22;19226;51.600;8.034;2023-07-20T01:14:23;17.70;99.90
32877;DHT22;19226;51.600;8.034;2023-07-20T01:17:08;17.60;99.90
32877;DHT22;19226;51.600;8.034;2023-07-20T01:19:53;17.60;99.90
32877;DHT22;19226;51.600;8.034;2023-07-20T01:32:01;17.60;99.90
32877;DHT22;19226;51.600;8.034;2023-07-20T01:34:52;17.60;99.90
32877;DHT22;19226;51.600;8.034;2023-07-20T01:37:40;17.60;99.90
32877;DHT22;19226;51.600;8.034;2023-07-20T01:40:25;17.50;99.90
32877;DHT22;19226;51.600;8.034;2023-07-20T01:43:11;17.50;99.90
32877;DHT22;19226;51.600;8.034;2023-07-20T01:45:56;17.60;99.90
32877;DHT22;19226;51.600;8.034;2023-07-20T01:48:41;17.60;99.90
32877;DHT22;19226;51.600;8.034;2023-07-20T01:51:26;17.60;99.90
32877;DHT22;19226;51.600;8.034;2023-07-20T01:54:10;17.60;99.90
32877;DHT22;19226;51.600;8.034;2023-07-20T01:56:55;17.60;99.90
32877;DHT22;19226;51.600;8.034;2023-07-20T01:59:40;17.60;99.90
32877;DHT22;19226;51.600;8.034;2023-07-20T02:02:27;17.60;99.90
32877;DHT22;19226;51.600;8.034;2023-07-20T02:05:14;17.60;99.90
32877;DHT22;19226;51.600;8.034;2023-07-20T02:07:59;17.60;99.90
32877;DHT22;19226;51.600;8.034;2023-07-20T02:10:48;17.60;99.90
32877;DHT22;19226;51.600;8.034;2023-07-20T02:13:32;17.60;99.90
32877;DHT22;19226;51.600;8.034;2023-07-20T02:16:17;17.60;99.90
32877;DHT22;19226;51.600;8.034;2023-07-20T02:19:02;17.60;99.90
32877;DHT22;19226;51.600;8.034;2023-07-20T02:21:46;17.60;99.90
32877;DHT22;19226;51.600;8.034;2023-07-20T02:24:31;17.60;99.90
32877;DHT22;19226;51.600;8.034;2023-07-20T02:27:16;17.60;99.90
32877;DHT22;19226;51.600;8.034;2023-07-20T02:30:01;17.60;99.90
32877;DHT22;19226;51.600;8.034;2023-07-20T02:32:45;17.60;99.90
32877;DHT22;19226;51.600;8.034;2023-07-20T02:35:32;17.60;99.90
32877;DHT22;19226;51.600;8.034;2023-07-20T02:38:17;17.60;99.90
32877;DHT22;19226;51.600;8.034;2023-07-20T02:41:02;17.50;99.90
32877;DHT22;19226;51.600;8.034;2023-07-20T02:43:47;17.50;99.90
32877;DHT22;19226;51.600;8.034;2023-07-20T02:46:31;17.50;99.90
32877;DHT22;19226;51.600;8.034;2023-07-20T02:49:16;17.50;99.90
32877;DHT22;19226;51.600;8.034;2023-07-20T02:52:01;17.60;99.90
32877;DHT22;19226;51.600;8.034;2023-07-20T02:54:46;17.50;99.90
32877;DHT22;19226;51.600;8.034;2023-07-20T02:57:31;17.50;99.90
32877;DHT22;19226;51.600;8.034;2023-07-20T03:00:15;17.50;99.90
32877;DHT22;19226;51.600;8.034;2023-07-20T03:03:00;17.60;99.90
32877;DHT22;19226;51.600;8.034;2023-07-20T03:05:45;17.60;99.90
32877;DHT22;19226;51.600;8.034;2023-07-20T03:08:30;17.60;99.90
32877;DHT22;19226;51.600;8.034;2023-07-20T03:11:14;17.50;99.90
32877;DHT22;19226;51.600;8.034;2023-07-20T03:14:02;17.50;99.90
32877;DHT22;19226;51.600;8.034;2023-07-20T03:16:46;17.50;99.90
32877;DHT22;19226;51.600;8.034;2023-07-20T03:19:31;17.50;99.90
32877;DHT22;19226;51.600;8.034;2023-07-20T03:22:17;17.50;99.90
32877;DHT22;19226;51.600;8.034;2023-07-20T03:25:02;17.50;99.90
32877;DHT22;19226;51.600;8.034;2023-07-20T03:27:46;17.50;99.90
32877;DHT22;19226;51.600;8.034;2023-07-20T03:30:31;17.50;99.90
32877;DHT22;19226;51.600;8.034;2023-07-20T03:33:15;17.40;99.90
32877;DHT22;19226;51.600;8.034;2023-07-20T03:36:00;17.40;99.90
32877;DHT22;19226;51.600;8.034;2023-07-20T03:38:45;17.50;99.90
32877;DHT22;19226;51.600;8.034;2023-07-20T03:41:29;17.50;99.90
32877;DHT22;19226;51.600;8.034;2023-07-20T03:44:14;17.40;99.90
32877;DHT22;19226;51.600;8.034;2023-07-20T03:46:58;17.40;99.90
32877;DHT22;19226;51.600;8.034;2023-07-20T03:49:43;17.40;99.90
32877;DHT22;19226;51.600;8.034;2023-07-20T03:52:27;17.30;99.90
32877;DHT22;19226;51.600;8.034;2023-07-20T03:55:12;17.30;99.90
32877;DHT22;19226;51.600;8.034;2023-07-20T03:57:56;17.30;99.90
32877;DHT22;19226;51.600;8.034;2023-07-20T04:00:51;17.30;99.90
32877;DHT22;19226;51.600;8.034;2023-07-20T04:03:36;17.30;99.90
32877;DHT22;19226;51.600;8.034;2023-07-20T04:06:22;17.30;99.90
32877;DHT22;19226;51.600;8.034;2023-07-20T04:09:06;17.40;99.90
32877;DHT22;19226;51.600;8.034;2023-07-20T04:11:50;17.30;99.90
32877;DHT22;19226;51.600;8.034;2023-07-20T04:14:35;17.20;99.90
32877;DHT22;19226;51.600;8.034;2023-07-20T04:17:20;17.20;99.90
32877;DHT22;19226;51.600;8.034;2023-07-20T04:20:05;17.20;99.90
32877;DHT22;19226;51.600;8.034;2023-07-20T04:22:50;17.20;99.90
32877;DHT22;19226;51.600;8.034;2023-07-20T04:25:35;17.00;99.90
32877;DHT22;19226;51.600;8.034;2023-07-20T04:28:23;17.00;99.90
32877;DHT22;19226;51.600;8.034;2023-07-20T04:31:15;16.70;99.90
32877;DHT22;19226;51.600;8.034;2023-07-20T04:34:01;16.50;99.90
32877;DHT22;19226;51.600;8.034;2023-07-20T04:36:47;16.50;99.90
32877;DHT22;19226;51.600;8.034;2023-07-20T04:39:32;16.50;99.90
32877;DHT22;19226;51.600;8.034;2023-07-20T04:42:21;16.50;99.90
32877;DHT22;19226;51.600;8.034;2023-07-20T04:45:06;16.60;99.90
32877;DHT22;19226;51.600;8.034;2023-07-20T04:47:50;16.60;99.90
32877;DHT22;19226;51.600;8.034;2023-07-20T04:50:35;16.70;99.90
32877;DHT22;19226;51.600;8.034;2023-07-20T04:53:20;16.70;99.90
32877;DHT22;19226;51.600;8.034;2023-07-20T04:56:05;16.80;99.90
32877;DHT22;19226;51.600;8.034;2023-07-20T04:58:49;16.80;99.90
32877;DHT22;19226;51.600;8.034;2023-07-20T05:01:33;16.80;99.90
32877;DHT22;19226;51.600;8.034;2023-07-20T05:04:18;16.80;99.90
32877;DHT22;19226;51.600;8.034;2023-07-20T05:07:02;16.80;99.90
32877;DHT22;19226;51.600;8.034;2023-07-20T05:09:47;16.80;99.90
32877;DHT22;19226;51.600;8.034;2023-07-20T05:12:32;16.70;99.90
32877;DHT22;19226;51.600;8.034;2023-07-20T05:15:17;16.70;99.90
32877;DHT22;19226;51.600;8.034;2023-07-20T05:18:02;16.60;99.90
32877;DHT22;19226;51.600;8.034;2023-07-20T05:20:47;16.50;99.90
32877;DHT22;19226;51.600;8.034;2023-07-20T05:23:33;16.40;99.90
32877;DHT22;19226;51.600;8.034;2023-07-20T05:26:17;16.40;99.90
32877;DHT22;19226;51.600;8.034;2023-07-20T05:29:02;16.50;99.90
32877;DHT22;19226;51.600;8.034;2023-07-20T05:31:47;16.50;99.90
32877;DHT22;19226;51.600;8.034;2023-07-20T05:34:31;16.50;99.90
32877;DHT22;19226;51.600;8.034;2023-07-20T05:37:16;16.60;99.90
32877;DHT22;19226;51.600;8.034;2023-07-20T05:40:00;16.60;99.90
32877;DHT22;19226;51.600;8.034;2023-07-20T05:42:45;16.60;99.90
32877;DHT22;19226;51.600;8.034;2023-07-20T05:45:30;16.70;99.90
32877;DHT22;19226;51.600;8.034;2023-07-20T05:48:15;16.70;99.90
32877;DHT22;19226;51.600;8.034;2023-07-20T05:51:00;16.80;99.90
32877;DHT22;19226;51.600;8.034;2023-07-20T05:53:45;16.80;99.90
32877;DHT22;19226;51.600;8.034;2023-07-20T05:56:30;16.90;99.90
32877;DHT22;19226;51.600;8.034;2023-07-20T05:59:14;16.90;99.90
32877;DHT22;19226;51.600;8.034;2023-07-20T06:01:59;17.00;99.90
32877;DHT22;19226;51.600;8.034;2023-07-20T06:04:44;17.00;99.90
32877;DHT22;19226;51.600;8.034;2023-07-20T06:07:28;17.10;99.90
32877;DHT22;19226;51.600;8.034;2023-07-20T06:10:13;17.20;99.90
32877;DHT22;19226;51.600;8.034;2023-07-20T06:12:58;17.10;99.90
32877;DHT22;19226;51.600;8.034;2023-07-20T06:15:42;17.10;99.90
32877;DHT22;19226;51.600;8.034;2023-07-20T06:18:27;17.10;99.90
32877;DHT22;19226;51.600;8.034;2023-07-20T06:21:11;17.20;99.90
32877;DHT22;19226;51.600;8.034;2023-07-20T06:23:56;17.20;99.90
32877;DHT22;19226;51.600;8.034;2023-07-20T06:26:41;17.30;99.90
32877;DHT22;19226;51.600;8.034;2023-07-20T06:29:25;17.40;99.90
32877;DHT22;19226;51.600;8.034;2023-07-20T06:32:10;17.40;99.90
32877;DHT22;19226;51.600;8.034;2023-07-20T06:34:54;17.40;99.90
32877;DHT22;19226;51.600;8.034;2023-07-20T06:37:39;17.50;99.90
32877;DHT22;19226;51.600;8.034;2023-07-20T06:40:24;17.60;99.90
32877;DHT22;19226;51.600;8.034;2023-07-20T06:43:08;17.60;99.90
32877;DHT22;19226;51.600;8.034;2023-07-20T06:45:53;17.70;99.90
32877;DHT22;19226;51.600;8.034;2023-07-20T06:48:38;17.70;99.90
32877;DHT22;19226;51.600;8.034;2023-07-20T06:51:22;17.60;99.90
32877;DHT22;19226;51.600;8.034;2023-07-20T06:54:07;17.60;99.90
32877;DHT22;19226;51.600;8.034;2023-07-20T06:56:51;17.60;99.90
32877;DHT22;19226;51.600;8.034;2023-07-20T06:59:36;17.70;99.90
32877;DHT22;19226;51.600;8.034;2023-07-20T07:02:21;17.90;99.90
32877;DHT22;19226;51.600;8.034;2023-07-20T07:05:05;17.90;99.90
32877;DHT22;19226;51.600;8.034;2023-07-20T07:07:50;18.10;99.90
32877;DHT22;19226;51.600;8.034;2023-07-20T07:10:36;18.30;99.90
32877;DHT22;19226;51.600;8.034;2023-07-20T07:13:20;18.40;99.90
32877;DHT22;19226;51.600;8.034;2023-07-20T07:16:05;18.60;99.90
32877;DHT22;19226;51.600;8.034;2023-07-20T07:18:50;18.70;99.90
32877;DHT22;19226;51.600;8.034;2023-07-20T07:21:35;18.80;99.90
32877;DHT22;19226;51.600;8.034;2023-07-20T07:24:20;18.90;99.90
32877;DHT22;19226;51.600;8.034;2023-07-20T07:27:04;18.90;99.90
32877;DHT22;19226;51.600;8.034;2023-07-20T07:29:49;19.00;99.90
32877;DHT22;19226;51.600;8.034;2023-07-20T07:32:34;19.10;99.90
32877;DHT22;19226;51.600;8.034;2023-07-20T07:35:18;19.10;99.90
32877;DHT22;19226;51.600;8.034;2023-07-20T07:38:03;19.10;99.90
32877;DHT22;19226;51.600;8.034;2023-07-20T07:40:48;19.20;99.90
32877;DHT22;19226;51.600;8.034;2023-07-20T07:43:32;19.20;99.90
32877;DHT22;19226;51.600;8.034;2023-07-20T07:46:17;19.30;99.90
32877;DHT22;19226;51.600;8.034;2023-07-20T07:49:02;19.20;99.90
32877;DHT22;19226;51.600;8.034;2023-07-20T07:51:47;19.30;99.90
32877;DHT22;19226;51.600;8.034;2023-07-20T07:54:32;19.40;99.90
32877;DHT22;19226;51.600;8.034;2023-07-20T07:57:17;19.50;99.90
32877;DHT22;19226;51.600;8.034;2023-07-20T08:00:01;19.60;99.90
32877;DHT22;19226;51.600;8.034;2023-07-20T08:02:50;19.70;99.90
32877;DHT22;19226;51.600;8.034;2023-07-20T08:05:35;19.80;99.90
32877;DHT22;19226;51.600;8.034;2023-07-20T08:08:19;20.00;99.90
32877;DHT22;19226;51.600;8.034;2023-07-20T08:11:04;20.20;99.90
32877;DHT22;19226;51.600;8.034;2023-07-20T08:13:49;20.30;99.90
32877;DHT22;19226;51.600;8.034;2023-07-20T08:16:33;20.40;99.90
32877;DHT22;19226;51.600;8.034;2023-07-20T08:19:20;20.40;99.90
32877;DHT22;19226;51.600;8.034;2023-07-20T08:22:05;20.70;99.90
32877;DHT22;19226;51.600;8.034;2023-07-20T08:24:50;20.90;99.90
32877;DHT22;19226;51.600;8.034;2023-07-20T08:27:36;21.10;99.90
32877;DHT22;19226;51.600;8.034;2023-07-20T08:30:22;21.30;99.90
32877;DHT22;19226;51.600;8.034;2023-07-20T08:33:08;21.30;99.90
32877;DHT22;19226;51.600;8.034;2023-07-20T08:35:53;21.40;99.90
32877;DHT22;19226;51.600;8.034;2023-07-20T08:38:38;21.30;99.90
32877;DHT22;19226;51.600;8.034;2023-07-20T08:41:22;21.30;99.90
32877;DHT22;19226;51.600;8.034;2023-07-20T08:44:07;21.30;99.90
32877;DHT22;19226;51.600;8.034;2023-07-20T08:46:52;21.30;99.90
32877;DHT22;19226;51.600;8.034;2023-07-20T08:49:39;21.50;99.90
32877;DHT22;19226;51.600;8.034;2023-07-20T08:52:24;21.60;99.90
32877;DHT22;19226;51.600;8.034;2023-07-20T08:55:08;21.80;99.90
32877;DHT22;19226;51.600;8.034;2023-07-20T08:57:55;22.00;99.90
32877;DHT22;19226;51.600;8.034;2023-07-20T09:00:40;22.10;99.90
32877;DHT22;19226;51.600;8.034;2023-07-20T09:03:25;22.10;99.90
32877;DHT22;19226;51.600;8.034;2023-07-20T09:06:10;22.20;99.90
32877;DHT22;19226;51.600;8.034;2023-07-20T09:08:55;22.20;99.90
32877;DHT22;19226;51.600;8.034;2023-07-20T09:11:40;22.20;99.90
32877;DHT22;19226;51.600;8.034;2023-07-20T09:14:25;22.40;99.90
32877;DHT22;19226;51.600;8.034;2023-07-20T09:17:13;22.60;99.90
32877;DHT22;19226;51.600;8.034;2023-07-20T09:20:02;22.70;99.90
32877;DHT22;19226;51.600;8.034;2023-07-20T09:22:51;22.80;99.90
32877;DHT22;19226;51.600;8.034;2023-07-20T09:25:36;23.00;99.90
32877;DHT22;19226;51.600;8.034;2023-07-20T09:28:21;23.00;99.90
32877;DHT22;19226;51.600;8.034;2023-07-20T09:31:18;23.20;99.90
32877;DHT22;19226;51.600;8.034;2023-07-20T09:34:04;23.30;99.90
32877;DHT22;19226;51.600;8.034;2023-07-20T09:36:48;23.20;99.90
32877;DHT22;19226;51.600;8.034;2023-07-20T09:39:45;23.30;99.90
32877;DHT22;19226;51.600;8.034;2023-07-20T09:42:29;23.30;99.90
32877;DHT22;19226;51.600;8.034;2023-07-20T09:45:14;23.30;99.90
32877;DHT22;19226;51.600;8.034;2023-07-20T09:48:06;23.50;99.90
32877;DHT22;19226;51.600;8.034;2023-07-20T09:50:51;23.70;99.90
32877;DHT22;19226;51.600;8.034;2023-07-20T09:53:37;23.70;99.90
32877;DHT22;19226;51.600;8.034;2023-07-20T09:56:22;23.70;99.90
32877;DHT22;19226;51.600;8.034;2023-07-20T09:59:07;23.90;99.90
32877;DHT22;19226;51.600;8.034;2023-07-20T10:01:53;24.00;99.90
32877;DHT22;19226;51.600;8.034;2023-07-20T10:04:40;23.70;99.90
32877;DHT22;19226;51.600;8.034;2023-07-20T10:07:27;23.80;99.90
32877;DHT22;19226;51.600;8.034;2023-07-20T10:10:18;23.90;99.90
32877;DHT22;19226;51.600;8.034;2023-07-20T10:13:03;24.00;99.90
32877;DHT22;19226;51.600;8.034;2023-07-20T10:15:50;24.10;99.90
32877;DHT22;19226;51.600;8.034;2023-07-20T10:21:42;24.40;99.90
32877;DHT22;19226;51.600;8.034;2023-07-20T10:24:31;24.40;99.90
32877;DHT22;19226;51.600;8.034;2023-07-20T10:27:18;24.40;99.90
32877;DHT22;19226;51.600;8.034;2023-07-20T10:30:03;24.50;99.90
32877;DHT22;19226;51.600;8.034;2023-07-20T10:32:49;24.70;99.90
32877;DHT22;19226;51.600;8.034;2023-07-20T10:35:56;24.90;99.90
32877;DHT22;19226;51.600;8.034;2023-07-20T10:38:42;25.10;99.90
32877;DHT22;19226;51.600;8.034;2023-07-20T10:44:12;25.30;99.90
32877;DHT22;19226;51.600;8.034;2023-07-20T10:47:02;25.40;99.90
32877;DHT22;19226;51.600;8.034;2023-07-20T10:50:00;25.60;99.90
32877;DHT22;19226;51.600;8.034;2023-07-20T10:53:04;25.70;99.90
32877;DHT22;19226;51.600;8.034;2023-07-20T10:56:11;25.40;99.90
32877;DHT22;19226;51.600;8.034;2023-07-20T10:59:00;25.60;99.90
32877;DHT22;19226;51.600;8.034;2023-07-20T11:01:46;25.40;99.90
32877;DHT22;19226;51.600;8.034;2023-07-20T11:04:49;25.20;99.90
32877;DHT22;19226;51.600;8.034;2023-07-20T11:07:38;25.20;99.90
32877;DHT22;19226;51.600;8.034;2023-07-20T11:10:23;25.50;99.90
32877;DHT22;19226;51.600;8.034;2023-07-20T11:13:23;25.60;99.90
32877;DHT22;19226;51.600;8.034;2023-07-20T11:16:09;25.70;99.90
32877;DHT22;19226;51.600;8.034;2023-07-20T11:18:55;25.30;99.90
32877;DHT22;19226;51.600;8.034;2023-07-20T11:21:41;25.30;99.90
32877;DHT22;19226;51.600;8.034;2023-07-20T11:24:26;25.50;99.90
32877;DHT22;19226;51.600;8.034;2023-07-20T11:27:11;25.70;99.90
32877;DHT22;19226;51.600;8.034;2023-07-20T11:29:56;25.70;99.90
32877;DHT22;19226;51.600;8.034;2023-07-20T11:32:47;25.70;99.70
32877;DHT22;19226;51.600;8.034;2023-07-20T11:35:44;25.90;99.90
32877;DHT22;19226;51.600;8.034;2023-07-20T11:38:32;25.80;98.00
32877;DHT22;19226;51.600;8.034;2023-07-20T11:41:17;26.00;99.90
32877;DHT22;19226;51.600;8.034;2023-07-20T11:44:02;26.10;99.90
32877;DHT22;19226;51.600;8.034;2023-07-20T11:46:46;26.20;99.90
32877;DHT22;19226;51.600;8.034;2023-07-20T11:49:35;26.40;99.90
32877;DHT22;19226;51.600;8.034;2023-07-20T11:52:23;26.50;98.90
32877;DHT22;19226;51.600;8.034;2023-07-20T11:55:08;26.60;98.90
32877;DHT22;19226;51.600;8.034;2023-07-20T11:58:06;26.70;98.20
32877;DHT22;19226;51.600;8.034;2023-07-20T12:00:51;26.80;99.30
32877;DHT22;19226;51.600;8.034;2023-07-20T12:03:36;26.80;99.80
32877;DHT22;19226;51.600;8.034;2023-07-20T12:06:23;26.90;98.20
32877;DHT22;19226;51.600;8.034;2023-07-20T12:09:14;26.90;98.20
32877;DHT22;19226;51.600;8.034;2023-07-20T12:12:09;26.70;98.00
32877;DHT22;19226;51.600;8.034;2023-07-20T12:14:55;26.60;97.40
32877;DHT22;19226;51.600;8.034;2023-07-20T12:17:49;26.70;96.30
32877;DHT22;19226;51.600;8.034;2023-07-20T12:20:37;26.80;96.40
32877;DHT22;19226;51.600;8.034;2023-07-20T12:23:22;26.70;95.70
32877;DHT22;19226;51.600;8.034;2023-07-20T12:26:08;26.90;96.70
32877;DHT22;19226;51.600;8.034;2023-07-20T12:28:54;26.60;93.80
32877;DHT22;19226;51.600;8.034;2023-07-20T12:31:38;26.90;95.00
32877;DHT22;19226;51.600;8.034;2023-07-20T12:34:23;27.00;95.20
32877;DHT22;19226;51.600;8.034;2023-07-20T12:37:07;27.00;96.40
32877;DHT22;19226;51.600;8.034;2023-07-20T12:39:52;26.90;95.70
32877;DHT22;19226;51.600;8.034;2023-07-20T12:42:37;27.10;96.20
32877;DHT22;19226;51.600;8.034;2023-07-20T12:45:21;27.20;95.30
32877;DHT22;19226;51.600;8.034;2023-07-20T12:48:06;27.20;93.00
32877;DHT22;19226;51.600;8.034;2023-07-20T12:50:51;27.20;93.90
32877;DHT22;19226;51.600;8.034;2023-07-20T12:53:36;27.20;94.30
32877;DHT22;19226;51.600;8.034;2023-07-20T12:56:20;27.20;92.60
32877;DHT22;19226;51.600;8.034;2023-07-20T12:59:05;27.20;92.50
32877;DHT22;19226;51.600;8.034;2023-07-20T13:01:50;27.30;92.10
32877;DHT22;19226;51.600;8.034;2023-07-20T13:04:34;27.50;92.90
32877;DHT22;19226;51.600;8.034;2023-07-20T13:07:38;27.50;90.20
32877;DHT22;19226;51.600;8.034;2023-07-20T13:10:23;27.40;90.40
32877;DHT22;19226;51.600;8.034;2023-07-20T13:13:08;27.20;90.50
32877;DHT22;19226;51.600;8.034;2023-07-20T13:15:53;27.20;88.80
32877;DHT22;19226;51.600;8.034;2023-07-20T13:18:38;27.00;91.10
32877;DHT22;19226;51.600;8.034;2023-07-20T13:21:22;27.10;91.60
32877;DHT22;19226;51.600;8.034;2023-07-20T13:24:08;27.20;91.40
32877;DHT22;19226;51.600;8.034;2023-07-20T13:26:53;27.40;91.30
32877;DHT22;19226;51.600;8.034;2023-07-20T13:29:37;27.70;92.90
32877;DHT22;19226;51.600;8.034;2023-07-20T13:32:22;27.80;91.30
32877;DHT22;19226;51.600;8.034;2023-07-20T13:35:07;27.90;91.20
32877;DHT22;19226;51.600;8.034;2023-07-20T13:37:52;27.90;91.30
32877;DHT22;19226;51.600;8.034;2023-07-20T13:40:36;27.80;90.00
32877;DHT22;19226;51.600;8.034;2023-07-20T13:43:21;27.60;90.50
32877;DHT22;19226;51.600;8.034;2023-07-20T13:46:05;27.60;90.90
32877;DHT22;19226;51.600;8.034;2023-07-20T13:48:50;27.70;90.30
32877;DHT22;19226;51.600;8.034;2023-07-20T13:51:34;27.70;90.20
32877;DHT22;19226;51.600;8.034;2023-07-20T13:54:19;27.80;87.10
32877;DHT22;19226;51.600;8.034;2023-07-20T13:57:04;27.90;89.60
32877;DHT22;19226;51.600;8.034;2023-07-20T13:59:49;28.00;86.30
32877;DHT22;19226;51.600;8.034;2023-07-20T14:02:33;28.00;85.80
32877;DHT22;19226;51.600;8.034;2023-07-20T14:05:18;28.10;88.80
32877;DHT22;19226;51.600;8.034;2023-07-20T14:08:03;28.30;88.80
32877;DHT22;19226;51.600;8.034;2023-07-20T14:10:48;28.50;86.90
32877;DHT22;19226;51.600;8.034;2023-07-20T14:13:32;28.40;86.10
32877;DHT22;19226;51.600;8.034;2023-07-20T14:16:17;28.50;87.70
32877;DHT22;19226;51.600;8.034;2023-07-20T14:19:02;28.50;81.90
32877;DHT22;19226;51.600;8.034;2023-07-20T14:21:48;28.50;81.30
32877;DHT22;19226;51.600;8.034;2023-07-20T14:24:33;28.40;77.30
32877;DHT22;19226;51.600;8.034;2023-07-20T14:27:17;28.40;79.10
32877;DHT22;19226;51.600;8.034;2023-07-20T14:30:02;28.60;83.10
32877;DHT22;19226;51.600;8.034;2023-07-20T14:32:46;28.70;80.70
32877;DHT22;19226;51.600;8.034;2023-07-20T14:35:31;28.90;80.70
32877;DHT22;19226;51.600;8.034;2023-07-20T14:38:16;28.90;79.20
32877;DHT22;19226;51.600;8.034;2023-07-20T14:41:01;29.10;82.20
32877;DHT22;19226;51.600;8.034;2023-07-20T14:43:46;29.30;81.20
32877;DHT22;19226;51.600;8.034;2023-07-20T14:46:30;29.40;78.90
32877;DHT22;19226;51.600;8.034;2023-07-20T14:49:16;29.50;77.10
32877;DHT22;19226;51.600;8.034;2023-07-20T14:52:02;29.30;77.50
32877;DHT22;19226;51.600;8.034;2023-07-20T14:54:47;29.30;77.80
32877;DHT22;19226;51.600;8.034;2023-07-20T14:57:32;29.50;77.90
32877;DHT22;19226;51.600;8.034;2023-07-20T15:00:17;29.50;75.30
32877;DHT22;19226;51.600;8.034;2023-07-20T15:03:02;29.60;77.60
32877;DHT22;19226;51.600;8.034;2023-07-20T15:05:47;29.60;74.50
32877;DHT22;19226;51.600;8.034;2023-07-20T15:08:31;29.70;75.40
32877;DHT22;19226;51.600;8.034;2023-07-20T15:11:16;29.80;76.00
32877;DHT22;19226;51.600;8.034;2023-07-20T15:14:00;29.90;76.90
32877;DHT22;19226;51.600;8.034;2023-07-20T15:16:45;30.00;73.10
32877;DHT22;19226;51.600;8.034;2023-07-20T15:19:30;30.10;71.30
32877;DHT22;19226;51.600;8.034;2023-07-20T15:22:14;30.10;70.00
32877;DHT22;19226;51.600;8.034;2023-07-20T15:24:59;30.00;68.60
32877;DHT22;19226;51.600;8.034;2023-07-20T15:27:44;30.20;69.70
32877;DHT22;19226;51.600;8.034;2023-07-20T15:30:29;29.80;68.70
32877;DHT22;19226;51.600;8.034;2023-07-20T15:33:14;29.60;69.70
32877;DHT22;19226;51.600;8.034;2023-07-20T15:35:59;29.50;69.80
32877;DHT22;19226;51.600;8.034;2023-07-20T15:38:43;29.50;72.40
32877;DHT22;19226;51.600;8.034;2023-07-20T15:41:28;29.70;73.60
32877;DHT22;19226;51.600;8.034;2023-07-20T15:44:13;29.70;72.00
32877;DHT22;19226;51.600;8.034;2023-07-20T15:46:58;29.80;72.50
32877;DHT22;19226;51.600;8.034;2023-07-20T15:49:43;29.60;70.00
32877;DHT22;19226;51.600;8.034;2023-07-20T15:52:27;29.40;69.60
32877;DHT22;19226;51.600;8.034;2023-07-20T15:55:12;29.50;69.50
32877;DHT22;19226;51.600;8.034;2023-07-20T15:57:56;29.60;69.00
32877;DHT22;19226;51.600;8.034;2023-07-20T16:00:40;29.50;68.80
32877;DHT22;19226;51.600;8.034;2023-07-20T16:03:25;29.50;68.70
32877;DHT22;19226;51.600;8.034;2023-07-20T16:06:10;29.60;69.00
32877;DHT22;19226;51.600;8.034;2023-07-20T16:08:54;29.50;70.10
32877;DHT22;19226;51.600;8.034;2023-07-20T16:11:39;29.60;71.40
32877;DHT22;19226;51.600;8.034;2023-07-20T16:14:23;29.50;70.50
32877;DHT22;19226;51.600;8.034;2023-07-20T16:17:08;29.50;70.50
32877;DHT22;19226;51.600;8.034;2023-07-20T16:19:52;29.40;71.00
32877;DHT22;19226;51.600;8.034;2023-07-20T16:22:37;29.30;70.20
32877;DHT22;19226;51.600;8.034;2023-07-20T16:25:22;29.20;72.50
32877;DHT22;19226;51.600;8.034;2023-07-20T16:28:06;29.20;74.60
32877;DHT22;19226;51.600;8.034;2023-07-20T16:30:51;28.90;72.70
32877;DHT22;19226;51.600;8.034;2023-07-20T16:33:37;28.70;72.60
32877;DHT22;19226;51.600;8.034;2023-07-20T16:36:23;28.50;72.30
32877;DHT22;19226;51.600;8.034;2023-07-20T16:39:08;28.40;72.00
32877;DHT22;19226;51.600;8.034;2023-07-20T16:41:54;28.10;72.50
32877;DHT22;19226;51.600;8.034;2023-07-20T16:44:38;28.20;73.60
32877;DHT22;19226;51.600;8.034;2023-07-20T16:47:24;28.20;74.10
32877;DHT22;19226;51.600;8.034;2023-07-20T16:50:08;28.10;73.50
32877;DHT22;19226;51.600;8.034;2023-07-20T16:52:54;27.80;72.30
32877;DHT22;19226;51.600;8.034;2023-07-20T16:55:39;27.50;73.70
32877;DHT22;19226;51.600;8.034;2023-07-20T16:58:27;27.30;72.90
32877;DHT22;19226;51.600;8.034;2023-07-20T17:01:11;27.10;74.00
32877;DHT22;19226;51.600;8.034;2023-07-20T17:03:56;26.90;76.00
32877;DHT22;19226;51.600;8.034;2023-07-20T17:06:40;26.90;76.50
32877;DHT22;19226;51.600;8.034;2023-07-20T17:09:25;26.90;76.90
32877;DHT22;19226;51.600;8.034;2023-07-20T17:12:10;26.70;76.70
32877;DHT22;19226;51.600;8.034;2023-07-20T17:14:54;26.50;78.10
32877;DHT22;19226;51.600;8.034;2023-07-20T17:17:39;26.40;80.50
32877;DHT22;19226;51.600;8.034;2023-07-20T17:20:23;26.20;81.40
32877;DHT22;19226;51.600;8.034;2023-07-20T17:23:08;26.20;84.40
32877;DHT22;19226;51.600;8.034;2023-07-20T17:25:53;26.20;84.20
32877;DHT22;19226;51.600;8.034;2023-07-20T17:28:38;26.20;84.40
32877;DHT22;19226;51.600;8.034;2023-07-20T17:31:23;26.20;82.40
32877;DHT22;19226;51.600;8.034;2023-07-20T17:34:12;26.20;82.70
32877;DHT22;19226;51.600;8.034;2023-07-20T17:36:56;26.00;80.60
32877;DHT22;19226;51.600;8.034;2023-07-20T17:39:41;25.90;80.40
32877;DHT22;19226;51.600;8.034;2023-07-20T17:42:25;25.80;82.30